createdAt,value
2017-08-22T00:00:26.653Z,16.49
2017-08-22T00:01:26.653Z,16.5
2017-08-22T00:02:26.647Z,16.5
2017-08-22T00:03:26.644Z,16.43
2017-08-22T00:04:26.336Z,16.41
2017-08-22T00:05:26.330Z,16.41
2017-08-22T00:06:26.631Z,16.4
2017-08-22T00:07:26.626Z,16.43
2017-08-22T00:08:26.622Z,16.39
2017-08-22T00:09:26.620Z,16.43
2017-08-22T00:10:26.614Z,16.34
2017-08-22T00:11:26.615Z,16.37
2017-08-22T00:12:26.302Z,16.4
2017-08-22T00:13:26.299Z,16.41
2017-08-22T00:14:26.291Z,16.41
2017-08-22T00:15:26.288Z,16.34
2017-08-22T00:16:26.588Z,16.39
2017-08-22T00:17:26.585Z,16.29
2017-08-22T00:18:26.580Z,16.26
2017-08-22T00:19:26.583Z,16.28
2017-08-22T00:20:26.578Z,16.34
2017-08-22T00:21:26.571Z,16.28
2017-08-22T00:22:26.567Z,16.31
2017-08-22T00:23:26.560Z,16.24
2017-08-22T00:24:26.253Z,16.29
2017-08-22T00:25:26.554Z,16.28
2017-08-22T00:26:26.559Z,16.21
2017-08-22T00:27:26.546Z,16.28
2017-08-22T00:28:26.544Z,16.32
2017-08-22T00:29:26.233Z,16.26
2017-08-22T00:30:26.534Z,16.22
2017-08-22T00:31:26.528Z,16.21
2017-08-22T00:32:26.221Z,16.25
2017-08-22T00:33:26.213Z,16.16
2017-08-22T00:34:26.211Z,16.1
2017-08-22T00:35:26.207Z,16.17
2017-08-22T00:36:26.511Z,16.1
2017-08-22T00:37:26.508Z,16.06
2017-08-22T00:38:26.504Z,16.1
2017-08-22T00:39:26.498Z,16.17
2017-08-22T00:40:26.511Z,16
2017-08-22T00:41:26.493Z,15.98
2017-08-22T00:42:26.494Z,15.98
2017-08-22T00:43:26.175Z,15.96
2017-08-22T00:44:26.172Z,15.9
2017-08-22T00:45:26.471Z,15.98
2017-08-22T00:46:26.470Z,15.9
2017-08-22T00:47:26.466Z,15.84
2017-08-22T00:48:26.462Z,15.85
2017-08-22T00:49:26.456Z,15.85
2017-08-22T00:50:26.453Z,15.81
2017-08-22T00:51:26.447Z,15.76
2017-08-22T00:52:26.442Z,15.76
2017-08-22T00:53:26.134Z,15.65
2017-08-22T00:54:26.434Z,15.69
2017-08-22T00:55:26.435Z,15.66
2017-08-22T00:56:26.121Z,15.63
2017-08-22T00:57:26.117Z,15.63
2017-08-22T00:58:26.418Z,15.63
2017-08-22T00:59:26.414Z,15.62
2017-08-22T01:00:26.409Z,15.55
2017-08-22T01:01:26.410Z,15.54
2017-08-22T01:02:26.401Z,15.59
2017-08-22T01:03:26.398Z,15.51
2017-08-22T01:04:26.397Z,15.45
2017-08-22T01:05:26.389Z,15.54
2017-08-22T01:06:26.081Z,15.48
2017-08-22T01:07:26.084Z,15.44
2017-08-22T01:08:26.382Z,15.47
2017-08-22T01:09:26.374Z,15.32
2017-08-22T01:10:26.371Z,15.47
2017-08-22T01:11:26.380Z,15.43
2017-08-22T01:12:26.055Z,15.35
2017-08-22T01:13:26.358Z,15.29
2017-08-22T01:14:26.356Z,15.33
2017-08-22T01:15:26.345Z,15.33
2017-08-22T01:16:26.343Z,15.3
2017-08-22T01:17:26.343Z,15.29
2017-08-22T01:18:26.335Z,15.23
2017-08-22T01:19:26.329Z,15.27
2017-08-22T01:20:26.330Z,15.26
2017-08-22T01:21:26.328Z,15.22
2017-08-22T01:22:26.320Z,15.18
2017-08-22T01:23:26.317Z,15.26
2017-08-22T01:24:26.314Z,15.15
2017-08-22T01:25:25.696Z,15.19
2017-08-22T01:26:25.998Z,15.25
2017-08-22T01:27:26.305Z,15.22
2017-08-22T01:28:26.296Z,15.12
2017-08-22T01:29:26.291Z,15.11
2017-08-22T01:30:26.284Z,15.15
2017-08-22T01:31:26.279Z,15.02
2017-08-22T01:32:26.283Z,15.12
2017-08-22T01:33:26.277Z,15.04
2017-08-22T01:34:26.275Z,15.05
2017-08-22T01:35:26.269Z,15.08
2017-08-22T01:36:25.958Z,15.05
2017-08-22T01:37:25.954Z,15.02
2017-08-22T01:38:26.256Z,15.04
2017-08-22T01:39:26.249Z,14.99
2017-08-22T01:40:25.949Z,14.96
2017-08-22T01:41:26.244Z,15.07
2017-08-22T01:42:25.932Z,14.92
2017-08-22T01:43:26.232Z,14.94
2017-08-22T01:44:25.925Z,14.87
2017-08-22T01:45:26.229Z,14.92
2017-08-22T01:46:26.230Z,14.79
2017-08-22T01:47:26.218Z,14.82
2017-08-22T01:48:26.213Z,14.79
2017-08-22T01:49:26.204Z,14.81
2017-08-22T01:50:26.200Z,14.73
2017-08-22T01:51:26.200Z,14.67
2017-08-22T01:52:25.894Z,14.73
2017-08-22T01:53:26.188Z,14.71
2017-08-22T01:54:26.186Z,14.7
2017-08-22T01:55:26.190Z,14.66
2017-08-22T01:56:26.181Z,14.61
2017-08-22T01:57:26.178Z,14.62
2017-08-22T01:58:26.168Z,14.63
2017-08-22T01:59:26.167Z,14.61
2017-08-22T02:00:26.162Z,14.62
2017-08-22T02:01:26.158Z,14.55
2017-08-22T02:02:26.158Z,14.53
2017-08-22T02:03:26.149Z,14.49
2017-08-22T02:04:26.143Z,14.61
2017-08-22T02:05:26.146Z,14.61
2017-08-22T02:06:26.133Z,14.58
2017-08-22T02:07:26.140Z,14.52
2017-08-22T02:08:26.131Z,14.62
2017-08-22T02:09:26.121Z,14.56
2017-08-22T02:10:26.125Z,14.51
2017-08-22T02:11:26.116Z,14.53
2017-08-22T02:12:26.130Z,14.56
2017-08-22T02:13:25.801Z,14.53
2017-08-22T02:14:26.106Z,14.53
2017-08-22T02:15:26.100Z,14.51
2017-08-22T02:16:26.097Z,14.48
2017-08-22T02:17:26.099Z,14.49
2017-08-22T02:18:26.084Z,14.51
2017-08-22T02:19:26.084Z,14.48
2017-08-22T02:20:25.775Z,14.44
2017-08-22T02:21:25.461Z,14.45
2017-08-22T02:22:26.071Z,14.44
2017-08-22T02:23:26.062Z,14.48
2017-08-22T02:24:26.068Z,14.41
2017-08-22T02:25:26.053Z,14.38
2017-08-22T02:26:26.063Z,14.43
2017-08-22T02:27:26.052Z,14.37
2017-08-22T02:28:26.048Z,14.4
2017-08-22T02:29:26.041Z,14.4
2017-08-22T02:30:26.039Z,14.37
2017-08-22T02:31:26.031Z,14.41
2017-08-22T02:32:26.030Z,14.34
2017-08-22T02:33:26.024Z,14.26
2017-08-22T02:34:25.719Z,14.28
2017-08-22T02:35:26.018Z,14.4
2017-08-22T02:36:25.400Z,14.19
2017-08-22T02:37:26.002Z,14.26
2017-08-22T02:38:26.006Z,14.23
2017-08-22T02:39:25.700Z,14.22
2017-08-22T02:40:26.007Z,14.11
2017-08-22T02:41:25.686Z,14.13
2017-08-22T02:42:25.994Z,14.15
2017-08-22T02:43:25.976Z,14.05
2017-08-22T02:44:25.976Z,14.05
2017-08-22T02:45:25.973Z,14.05
2017-08-22T02:46:25.966Z,14.04
2017-08-22T02:47:25.964Z,14.12
2017-08-22T02:48:25.956Z,14.08
2017-08-22T02:49:25.962Z,14.16
2017-08-22T02:50:25.947Z,14.12
2017-08-22T02:51:25.948Z,14.13
2017-08-22T02:52:25.637Z,14.11
2017-08-22T02:53:25.937Z,14.13
2017-08-22T02:54:25.936Z,14.13
2017-08-22T02:55:25.927Z,14.11
2017-08-22T02:56:25.926Z,14.07
2017-08-22T02:57:25.923Z,14.13
2017-08-22T02:58:25.916Z,14.13
2017-08-22T02:59:25.911Z,14.13
2017-08-22T03:00:25.905Z,14.08
2017-08-22T03:01:25.900Z,14.15
2017-08-22T03:02:25.898Z,14.2
2017-08-22T03:03:25.891Z,14.28
2017-08-22T03:04:25.891Z,14.3
2017-08-22T03:05:25.882Z,14.31
2017-08-22T03:06:25.589Z,14.28
2017-08-22T03:07:25.879Z,14.31
2017-08-22T03:08:25.873Z,14.34
2017-08-22T03:09:25.871Z,14.33
2017-08-22T03:10:25.862Z,14.28
2017-08-22T03:11:25.560Z,14.19
2017-08-22T03:12:25.857Z,14.25
2017-08-22T03:13:25.545Z,14.22
2017-08-22T03:14:25.854Z,14.22
2017-08-22T03:15:25.842Z,14.25
2017-08-22T03:16:25.843Z,14.23
2017-08-22T03:17:25.224Z,14.23
2017-08-22T03:18:25.524Z,14.23
2017-08-22T03:19:25.827Z,14.28
2017-08-22T03:20:25.513Z,14.23
2017-08-22T03:21:25.814Z,14.28
2017-08-22T03:22:25.535Z,14.2
2017-08-22T03:23:25.811Z,14.2
2017-08-22T03:24:25.805Z,14.26
2017-08-22T03:25:25.801Z,14.23
2017-08-22T03:26:25.796Z,14.2
2017-08-22T03:27:25.795Z,14.19
2017-08-22T03:28:25.786Z,14.18
2017-08-22T03:29:25.487Z,14.23
2017-08-22T03:30:25.478Z,14.16
2017-08-22T03:31:25.777Z,14.15
2017-08-22T03:32:25.462Z,14.08
2017-08-22T03:33:25.465Z,14.15
2017-08-22T03:34:25.457Z,14.11
2017-08-22T03:35:25.448Z,14.11
2017-08-22T03:36:25.450Z,14.12
2017-08-22T03:37:25.748Z,14.13
2017-08-22T03:38:25.438Z,14.08
2017-08-22T03:39:25.431Z,14.05
2017-08-22T03:40:25.452Z,14.04
2017-08-22T03:41:25.727Z,14.07
2017-08-22T03:42:25.418Z,14.05
2017-08-22T03:43:25.724Z,14
2017-08-22T03:44:25.719Z,13.98
2017-08-22T03:45:25.405Z,13.97
2017-08-22T03:46:25.706Z,13.98
2017-08-22T03:47:25.704Z,13.94
2017-08-22T03:48:25.700Z,13.95
2017-08-22T03:49:25.702Z,13.82
2017-08-22T03:50:25.384Z,13.8
2017-08-22T03:51:25.384Z,13.79
2017-08-22T03:52:25.680Z,13.78
2017-08-22T03:53:25.681Z,13.82
2017-08-22T03:54:25.686Z,13.79
2017-08-22T03:55:25.669Z,13.79
2017-08-22T03:56:25.354Z,13.73
2017-08-22T03:57:25.661Z,13.82
2017-08-22T03:58:25.653Z,13.76
2017-08-22T03:59:25.648Z,13.73
2017-08-22T04:00:25.649Z,13.75
2017-08-22T04:01:25.642Z,13.8
2017-08-22T04:02:25.338Z,13.75
2017-08-22T04:03:25.327Z,13.7
2017-08-22T04:04:25.323Z,13.62
2017-08-22T04:05:25.323Z,13.68
2017-08-22T04:06:25.622Z,13.68
2017-08-22T04:07:25.619Z,13.64
2017-08-22T04:08:25.306Z,13.68
2017-08-22T04:09:25.303Z,13.67
2017-08-22T04:10:25.298Z,13.49
2017-08-22T04:11:25.294Z,13.54
2017-08-22T04:12:25.619Z,13.54
2017-08-22T04:13:25.585Z,13.47
2017-08-22T04:14:25.279Z,13.39
2017-08-22T04:15:25.582Z,13.43
2017-08-22T04:16:25.576Z,13.33
2017-08-22T04:17:25.573Z,13.27
2017-08-22T04:18:25.568Z,13.28
2017-08-22T04:19:25.262Z,13.26
2017-08-22T04:20:25.262Z,13.28
2017-08-22T04:21:25.552Z,13.3
2017-08-22T04:22:25.548Z,13.23
2017-08-22T04:23:25.552Z,13.21
2017-08-22T04:24:25.543Z,13.21
2017-08-22T04:25:25.541Z,13.28
2017-08-22T04:26:25.532Z,13.27
2017-08-22T04:27:25.531Z,13.33
2017-08-22T04:28:25.524Z,13.33
2017-08-22T04:29:25.513Z,13.36
2017-08-22T04:30:25.517Z,13.26
2017-08-22T04:31:25.510Z,13.27
2017-08-22T04:32:25.504Z,13.24
2017-08-22T04:33:25.198Z,13.26
2017-08-22T04:34:25.193Z,13.24
2017-08-22T04:35:25.493Z,13.33
2017-08-22T04:36:25.486Z,13.2
2017-08-22T04:37:25.489Z,13.13
2017-08-22T04:38:25.477Z,13.24
2017-08-22T04:39:25.172Z,13.3
2017-08-22T04:40:25.488Z,13.37
2017-08-22T04:41:25.468Z,13.3
2017-08-22T04:42:25.461Z,13.17
2017-08-22T04:43:25.460Z,13.11
2017-08-22T04:44:25.457Z,13.31
2017-08-22T04:45:25.453Z,13.3
2017-08-22T04:46:25.443Z,13.3
2017-08-22T04:47:25.440Z,13.23
2017-08-22T04:48:25.436Z,13.21
2017-08-22T04:49:25.432Z,13.23
2017-08-22T04:50:25.423Z,13.24
2017-08-22T04:51:25.424Z,13.23
2017-08-22T04:52:25.418Z,13.3
2017-08-22T04:53:25.419Z,13.39
2017-08-22T04:54:25.413Z,13.52
2017-08-22T04:55:25.406Z,13.64
2017-08-22T04:56:25.401Z,13.64
2017-08-22T04:57:25.395Z,13.79
2017-08-22T04:58:25.388Z,13.87
2017-08-22T04:59:25.081Z,14.04
2017-08-22T05:00:25.078Z,14.01
2017-08-22T05:01:25.379Z,14.13
2017-08-22T05:02:25.378Z,14.15
2017-08-22T05:03:25.370Z,14.18
2017-08-22T05:04:25.370Z,14.25
2017-08-22T05:05:25.359Z,14.28
2017-08-22T05:06:25.354Z,14.37
2017-08-22T05:07:25.351Z,14.55
2017-08-22T05:08:25.344Z,14.78
2017-08-22T05:09:25.342Z,14.99
2017-08-22T05:10:25.034Z,15.25
2017-08-22T05:11:25.336Z,15.36
2017-08-22T05:12:25.335Z,15.54
2017-08-22T05:13:25.326Z,15.72
2017-08-22T05:14:25.322Z,15.76
2017-08-22T05:15:25.319Z,15.94
2017-08-22T05:16:25.306Z,16.29
2017-08-22T05:17:25.307Z,16.66
2017-08-22T05:18:25.302Z,16.73
2017-08-22T05:19:25.294Z,17.04
2017-08-22T05:20:24.686Z,17.32
2017-08-22T05:21:25.289Z,17.66
2017-08-22T05:22:25.285Z,17.76
2017-08-22T05:23:24.977Z,18.05
2017-08-22T05:24:25.286Z,18.18
2017-08-22T05:25:25.271Z,18.46
2017-08-22T05:26:24.967Z,18.7
2017-08-22T05:27:25.268Z,18.81
2017-08-22T05:28:25.262Z,19.04
2017-08-22T05:29:25.256Z,19.23
2017-08-22T05:30:25.257Z,19.37
2017-08-22T05:31:25.252Z,19.47
2017-08-22T05:32:25.247Z,19.59
2017-08-22T05:33:25.245Z,19.78
2017-08-22T05:34:25.242Z,19.89
2017-08-22T05:35:25.237Z,20.07
2017-08-22T05:36:24.927Z,20.21
2017-08-22T05:37:24.921Z,20.3
2017-08-22T05:38:25.233Z,20.33
2017-08-22T05:39:24.917Z,20.34
2017-08-22T05:40:25.220Z,20.39
2017-08-22T05:41:25.219Z,20.58
2017-08-22T05:42:25.214Z,20.75
2017-08-22T05:43:25.211Z,20.88
2017-08-22T05:44:25.213Z,20.98
2017-08-22T05:45:25.203Z,21.08
2017-08-22T05:46:25.198Z,21.23
2017-08-22T05:47:25.204Z,21.41
2017-08-22T05:48:25.193Z,21.53
2017-08-22T05:49:25.183Z,21.58
2017-08-22T05:50:25.191Z,21.5
2017-08-22T05:51:25.182Z,21.66
2017-08-22T05:52:24.876Z,21.63
2017-08-22T05:53:25.176Z,21.78
2017-08-22T05:54:25.178Z,21.96
2017-08-22T05:55:25.168Z,22.18
2017-08-22T05:56:25.170Z,22.31
2017-08-22T05:57:25.166Z,22.53
2017-08-22T05:58:25.161Z,22.91
2017-08-22T05:59:25.167Z,23.08
2017-08-22T06:00:24.871Z,23.39
2017-08-22T06:01:24.852Z,23.64
2017-08-22T06:02:25.157Z,23.82
2017-08-22T06:03:25.159Z,24.03
2017-08-22T06:04:25.153Z,24.28
2017-08-22T06:05:25.153Z,24.51
2017-08-22T06:06:25.153Z,24.61
2017-08-22T06:07:24.864Z,24.82
2017-08-22T06:08:25.150Z,25.01
2017-08-22T06:09:25.147Z,25.21
2017-08-22T06:10:24.836Z,25.34
2017-08-22T06:11:25.142Z,25.25
2017-08-22T06:12:25.148Z,25.01
2017-08-22T06:13:25.135Z,24.85
2017-08-22T06:14:24.827Z,24.89
2017-08-22T06:15:24.833Z,25.29
2017-08-22T06:16:24.827Z,25.33
2017-08-22T06:17:24.522Z,25.39
2017-08-22T06:18:24.520Z,25.3
2017-08-22T06:19:24.830Z,25.26
2017-08-22T06:20:25.134Z,25.14
2017-08-22T06:21:25.130Z,25.07
2017-08-22T06:22:25.129Z,25.16
2017-08-22T06:23:24.818Z,25.31
2017-08-22T06:24:24.829Z,25.24
2017-08-22T06:25:25.125Z,24.92
2017-08-22T06:26:25.123Z,24.48
2017-08-22T06:27:25.124Z,24.06
2017-08-22T06:28:25.124Z,23.85
2017-08-22T06:29:25.114Z,23.74
2017-08-22T06:30:25.116Z,23.73
2017-08-22T06:31:24.809Z,23.56
2017-08-22T06:32:25.117Z,23.4
2017-08-22T06:33:25.114Z,23.01
2017-08-22T06:34:24.498Z,22.77
2017-08-22T06:35:24.797Z,22.53
2017-08-22T06:36:25.109Z,22.4
2017-08-22T06:37:25.106Z,22.15
2017-08-22T06:38:25.113Z,22.08
2017-08-22T06:39:24.801Z,21.92
2017-08-22T06:40:24.795Z,21.78
2017-08-22T06:41:25.099Z,21.7
2017-08-22T06:42:25.097Z,21.54
2017-08-22T06:43:25.090Z,21.62
2017-08-22T06:44:25.090Z,21.6
2017-08-22T06:45:25.091Z,21.51
2017-08-22T06:46:25.085Z,21.51
2017-08-22T06:47:25.085Z,21.58
2017-08-22T06:48:24.770Z,21.51
2017-08-22T06:49:25.085Z,21.59
2017-08-22T06:50:24.768Z,21.58
2017-08-22T06:51:25.074Z,21.58
2017-08-22T06:52:24.764Z,21.53
2017-08-22T06:53:25.066Z,21.51
2017-08-22T06:54:25.069Z,21.47
2017-08-22T06:55:25.064Z,21.44
2017-08-22T06:56:25.064Z,21.37
2017-08-22T06:57:25.067Z,21.28
2017-08-22T06:58:25.057Z,21.22
2017-08-22T06:59:25.050Z,21.13
2017-08-22T07:00:25.054Z,21.11
2017-08-22T07:01:25.047Z,21.14
2017-08-22T07:02:25.047Z,21.14
2017-08-22T07:03:24.743Z,21.11
2017-08-22T07:04:25.043Z,21.1
2017-08-22T07:05:24.426Z,21.1
2017-08-22T07:06:24.725Z,21.13
2017-08-22T07:07:25.035Z,21.11
2017-08-22T07:08:25.027Z,21.14
2017-08-22T07:09:25.028Z,21.01
2017-08-22T07:10:25.021Z,21
2017-08-22T07:11:25.020Z,21.14
2017-08-22T07:12:25.017Z,21.11
2017-08-22T07:13:25.012Z,21.19
2017-08-22T07:14:25.013Z,21.26
2017-08-22T07:15:25.011Z,21.26
2017-08-22T07:16:24.700Z,21.28
2017-08-22T07:17:24.952Z,21.14
2017-08-22T07:18:24.997Z,21.13
2017-08-22T07:19:25.017Z,21.08
2017-08-22T07:20:24.998Z,21.08
2017-08-22T07:21:24.990Z,21.13
2017-08-22T07:22:24.990Z,21.1
2017-08-22T07:23:24.989Z,21.13
2017-08-22T07:24:24.982Z,21.11
2017-08-22T07:25:24.990Z,21.22
2017-08-22T07:26:24.985Z,21.35
2017-08-22T07:27:24.974Z,21.3
2017-08-22T07:28:24.663Z,21.29
2017-08-22T07:29:24.969Z,21.29
2017-08-22T07:30:24.969Z,21.32
2017-08-22T07:31:24.964Z,21.4
2017-08-22T07:32:24.960Z,21.47
2017-08-22T07:33:24.957Z,21.54
2017-08-22T07:34:24.951Z,21.58
2017-08-22T07:35:24.949Z,21.51
2017-08-22T07:36:24.641Z,21.45
2017-08-22T07:37:24.948Z,21.43
2017-08-22T07:38:24.634Z,21.54
2017-08-22T07:39:24.631Z,21.45
2017-08-22T07:40:24.958Z,21.62
2017-08-22T07:41:24.935Z,21.56
2017-08-22T07:42:24.927Z,21.56
2017-08-22T07:43:24.615Z,21.63
2017-08-22T07:44:24.613Z,21.59
2017-08-22T07:45:24.617Z,21.65
2017-08-22T07:46:24.917Z,21.8
2017-08-22T07:47:24.911Z,21.83
2017-08-22T07:48:24.912Z,21.84
2017-08-22T07:49:24.914Z,21.7
2017-08-22T07:50:24.600Z,21.68
2017-08-22T07:51:24.904Z,21.75
2017-08-22T07:52:24.899Z,21.75
2017-08-22T07:53:24.896Z,21.77
2017-08-22T07:54:24.903Z,21.96
2017-08-22T07:55:24.589Z,22.04
2017-08-22T07:56:24.892Z,21.94
2017-08-22T07:57:24.890Z,22.01
2017-08-22T07:58:24.879Z,22.03
2017-08-22T07:59:24.879Z,22.03
2017-08-22T08:00:24.878Z,22.16
2017-08-22T08:01:24.869Z,22.16
2017-08-22T08:02:24.562Z,22.25
2017-08-22T08:03:24.561Z,22.36
2017-08-22T08:04:24.559Z,22.34
2017-08-22T08:05:24.860Z,22.43
2017-08-22T08:06:24.856Z,22.44
2017-08-22T08:07:24.556Z,22.44
2017-08-22T08:08:24.855Z,22.47
2017-08-22T08:09:24.850Z,22.7
2017-08-22T08:10:24.545Z,22.78
2017-08-22T08:11:24.848Z,22.89
2017-08-22T08:12:24.839Z,22.92
2017-08-22T08:13:24.838Z,22.86
2017-08-22T08:14:24.835Z,22.89
2017-08-22T08:15:24.834Z,23.07
2017-08-22T08:16:24.825Z,23.23
2017-08-22T08:17:24.829Z,23.32
2017-08-22T08:18:24.821Z,23.44
2017-08-22T08:19:24.514Z,23.74
2017-08-22T08:20:24.815Z,24.09
2017-08-22T08:21:24.819Z,24.29
2017-08-22T08:22:24.815Z,24.55
2017-08-22T08:23:24.804Z,24.55
2017-08-22T08:24:24.805Z,24.61
2017-08-22T08:25:24.804Z,24.4
2017-08-22T08:26:24.804Z,24.25
2017-08-22T08:27:24.802Z,24.13
2017-08-22T08:28:24.798Z,24.1
2017-08-22T08:29:24.791Z,23.91
2017-08-22T08:30:24.798Z,23.88
2017-08-22T08:31:24.791Z,23.71
2017-08-22T08:32:24.788Z,23.64
2017-08-22T08:33:24.785Z,23.52
2017-08-22T08:34:24.780Z,23.39
2017-08-22T08:35:24.775Z,23.32
2017-08-22T08:36:24.167Z,23.36
2017-08-22T08:37:24.797Z,23.37
2017-08-22T08:38:24.771Z,23.4
2017-08-22T08:39:24.764Z,23.54
2017-08-22T08:40:24.474Z,23.51
2017-08-22T08:41:24.762Z,23.62
2017-08-22T08:42:24.754Z,23.76
2017-08-22T08:43:24.751Z,23.67
2017-08-22T08:44:24.749Z,23.73
2017-08-22T08:45:24.765Z,23.77
2017-08-22T08:46:24.743Z,23.79
2017-08-22T08:47:24.438Z,23.74
2017-08-22T08:48:24.436Z,23.81
2017-08-22T08:49:24.428Z,23.86
2017-08-22T08:50:24.733Z,23.95
2017-08-22T08:51:24.426Z,24.1
2017-08-22T08:52:24.732Z,24.11
2017-08-22T08:53:24.418Z,24.01
2017-08-22T08:54:24.725Z,24.03
2017-08-22T08:55:24.721Z,23.96
2017-08-22T08:56:24.717Z,23.96
2017-08-22T08:57:24.715Z,24.1
2017-08-22T08:58:24.406Z,24.18
2017-08-22T08:59:24.742Z,24.11
2017-08-22T09:00:24.405Z,24.11
2017-08-22T09:01:24.704Z,24.09
2017-08-22T09:02:24.702Z,24.03
2017-08-22T09:03:24.391Z,23.96
2017-08-22T09:04:24.698Z,23.96
2017-08-22T09:05:24.698Z,23.91
2017-08-22T09:06:24.687Z,23.94
2017-08-22T09:07:24.692Z,24
2017-08-22T09:08:24.687Z,24.1
2017-08-22T09:09:24.721Z,24.06
2017-08-22T09:10:24.674Z,24.06
2017-08-22T09:11:24.374Z,24.25
2017-08-22T09:12:24.679Z,24.25
2017-08-22T09:13:24.670Z,24.16
2017-08-22T09:14:24.376Z,24.09
2017-08-22T09:15:24.663Z,24.06
2017-08-22T09:16:24.362Z,24.11
2017-08-22T09:17:24.660Z,24.03
2017-08-22T09:18:24.659Z,24.25
2017-08-22T09:19:24.653Z,24.28
2017-08-22T09:20:24.655Z,24.43
2017-08-22T09:21:24.652Z,24.53
2017-08-22T09:22:24.656Z,24.5
2017-08-22T09:23:24.642Z,24.48
2017-08-22T09:24:24.644Z,24.58
2017-08-22T09:25:24.341Z,24.51
2017-08-22T09:26:24.637Z,24.5
2017-08-22T09:27:24.637Z,24.62
2017-08-22T09:28:24.635Z,24.71
2017-08-22T09:29:24.631Z,24.74
2017-08-22T09:30:24.628Z,24.81
2017-08-22T09:31:24.629Z,24.84
2017-08-22T09:32:24.627Z,24.79
2017-08-22T09:33:24.619Z,24.84
2017-08-22T09:34:24.663Z,24.92
2017-08-22T09:35:24.306Z,25.01
2017-08-22T09:36:24.615Z,25.07
2017-08-22T09:37:24.608Z,25.11
2017-08-22T09:38:24.608Z,25.18
2017-08-22T09:39:24.294Z,25.18
2017-08-22T09:40:24.604Z,25.34
2017-08-22T09:41:24.602Z,25.25
2017-08-22T09:42:24.599Z,25.37
2017-08-22T09:43:24.590Z,25.39
2017-08-22T09:44:24.594Z,25.48
2017-08-22T09:45:24.592Z,25.41
2017-08-22T09:46:24.587Z,25.16
2017-08-22T09:47:24.593Z,24.99
2017-08-22T09:48:24.578Z,24.68
2017-08-22T09:49:24.576Z,24.5
2017-08-22T09:50:24.575Z,24.36
2017-08-22T09:51:24.572Z,24.24
2017-08-22T09:52:24.570Z,24.14
2017-08-22T09:53:24.569Z,24.01
2017-08-22T09:54:24.261Z,24.03
2017-08-22T09:55:24.566Z,23.96
2017-08-22T09:56:24.559Z,23.99
2017-08-22T09:57:24.559Z,23.88
2017-08-22T09:58:24.656Z,23.84
2017-08-22T09:59:24.551Z,23.79
2017-08-22T10:00:24.548Z,23.84
2017-08-22T10:01:24.545Z,23.74
2017-08-22T10:02:24.550Z,23.77
2017-08-22T10:03:24.543Z,23.77
2017-08-22T10:04:24.540Z,23.82
2017-08-22T10:05:24.228Z,23.81
2017-08-22T10:06:24.535Z,23.88
2017-08-22T10:07:24.531Z,23.95
2017-08-22T10:08:24.530Z,24
2017-08-22T10:09:24.529Z,23.99
2017-08-22T10:10:24.217Z,23.91
2017-08-22T10:11:24.520Z,23.84
2017-08-22T10:12:24.518Z,23.67
2017-08-22T10:13:24.518Z,23.67
2017-08-22T10:14:24.533Z,23.58
2017-08-22T10:15:24.200Z,23.55
2017-08-22T10:16:24.506Z,23.55
2017-08-22T10:17:23.887Z,23.54
2017-08-22T10:18:24.506Z,23.4
2017-08-22T10:19:24.498Z,23.42
2017-08-22T10:20:24.495Z,23.37
2017-08-22T10:21:24.492Z,23.28
2017-08-22T10:22:24.491Z,23.21
2017-08-22T10:23:24.486Z,23.2
2017-08-22T10:24:24.487Z,23.18
2017-08-22T10:25:24.478Z,23.11
2017-08-22T10:26:24.171Z,23.06
2017-08-22T10:27:24.481Z,23.08
2017-08-22T10:28:24.473Z,22.99
2017-08-22T10:29:24.502Z,23.02
2017-08-22T10:30:24.469Z,22.96
2017-08-22T10:31:24.464Z,22.95
2017-08-22T10:32:24.458Z,23.08
2017-08-22T10:33:24.456Z,23.06
2017-08-22T10:34:24.454Z,23.04
2017-08-22T10:35:24.452Z,23.07
2017-08-22T10:36:24.446Z,23.07
2017-08-22T10:37:24.139Z,23.08
2017-08-22T10:38:24.441Z,23.1
2017-08-22T10:39:24.433Z,23.1
2017-08-22T10:40:24.442Z,23.06
2017-08-22T10:41:24.446Z,23.01
2017-08-22T10:42:24.119Z,23.06
2017-08-22T10:43:24.422Z,22.99
2017-08-22T10:44:24.430Z,22.92
2017-08-22T10:45:24.116Z,22.92
2017-08-22T10:46:24.411Z,22.89
2017-08-22T10:47:24.413Z,22.89
2017-08-22T10:48:24.423Z,22.99
2017-08-22T10:49:24.109Z,22.96
2017-08-22T10:50:24.098Z,23.04
2017-08-22T10:51:24.405Z,22.95
2017-08-22T10:52:24.394Z,22.91
2017-08-22T10:53:24.393Z,22.98
2017-08-22T10:54:24.400Z,22.89
2017-08-22T10:55:24.386Z,22.98
2017-08-22T10:56:24.381Z,22.96
2017-08-22T10:57:24.378Z,23.06
2017-08-22T10:58:24.381Z,23.06
2017-08-22T10:59:24.373Z,23.13
2017-08-22T11:00:24.372Z,23.16
2017-08-22T11:01:24.375Z,23.17
2017-08-22T11:02:24.366Z,23.06
2017-08-22T11:03:24.362Z,23.04
2017-08-22T11:04:24.362Z,23.06
2017-08-22T11:05:24.357Z,23.02
2017-08-22T11:06:24.352Z,23.08
2017-08-22T11:07:24.039Z,23.1
2017-08-22T11:08:24.044Z,23.1
2017-08-22T11:09:24.344Z,23.16
2017-08-22T11:10:24.036Z,23.18
2017-08-22T11:11:24.341Z,23.2
2017-08-22T11:12:24.334Z,23.29
2017-08-22T11:13:24.377Z,23.26
2017-08-22T11:14:24.326Z,23.32
2017-08-22T11:15:24.323Z,23.42
2017-08-22T11:16:24.322Z,23.37
2017-08-22T11:17:24.319Z,23.45
2017-08-22T11:18:24.311Z,23.42
2017-08-22T11:19:24.316Z,23.4
2017-08-22T11:20:24.307Z,23.4
2017-08-22T11:21:24.307Z,23.54
2017-08-22T11:22:24.308Z,23.54
2017-08-22T11:23:24.301Z,23.51
2017-08-22T11:24:24.293Z,23.54
2017-08-22T11:25:24.289Z,23.58
2017-08-22T11:26:24.291Z,23.56
2017-08-22T11:27:23.979Z,23.52
2017-08-22T11:28:24.282Z,23.51
2017-08-22T11:29:24.282Z,23.37
2017-08-22T11:30:24.272Z,23.42
2017-08-22T11:31:24.277Z,23.44
2017-08-22T11:32:24.272Z,23.42
2017-08-22T11:33:24.272Z,23.47
2017-08-22T11:34:23.958Z,23.55
2017-08-22T11:35:24.261Z,23.54
2017-08-22T11:36:24.259Z,23.7
2017-08-22T11:37:24.256Z,23.77
2017-08-22T11:38:24.252Z,23.92
2017-08-22T11:39:24.254Z,23.95
2017-08-22T11:40:24.246Z,24.18
2017-08-22T11:41:24.246Z,24.21
2017-08-22T11:42:24.236Z,24.26
2017-08-22T11:43:23.931Z,24.4
2017-08-22T11:44:24.233Z,24.47
2017-08-22T11:45:24.230Z,24.48
2017-08-22T11:46:24.230Z,24.56
2017-08-22T11:47:23.918Z,24.61
2017-08-22T11:48:24.226Z,24.65
2017-08-22T11:49:24.219Z,24.62
2017-08-22T11:50:24.220Z,24.62
2017-08-22T11:51:24.211Z,24.66
2017-08-22T11:52:24.208Z,24.66
2017-08-22T11:53:24.206Z,24.82
2017-08-22T11:54:24.209Z,24.74
2017-08-22T11:55:24.199Z,24.78
2017-08-22T11:56:23.889Z,24.71
2017-08-22T11:57:24.197Z,24.81
2017-08-22T11:58:24.189Z,24.85
2017-08-22T11:59:23.882Z,24.93
2017-08-22T12:00:24.191Z,24.99
2017-08-22T12:01:24.189Z,25.03
2017-08-22T12:02:24.180Z,25.09
2017-08-22T12:03:24.178Z,25.22
2017-08-22T12:04:23.878Z,25.3
2017-08-22T12:05:24.173Z,25.3
2017-08-22T12:06:24.166Z,25.37
2017-08-22T12:07:23.861Z,25.43
2017-08-22T12:08:24.170Z,25.55
2017-08-22T12:09:24.160Z,25.59
2017-08-22T12:10:24.166Z,25.62
2017-08-22T12:11:24.160Z,25.52
2017-08-22T12:12:23.857Z,25.46
2017-08-22T12:13:24.155Z,25.48
2017-08-22T12:14:24.150Z,25.49
2017-08-22T12:15:24.148Z,25.55
2017-08-22T12:16:24.145Z,25.63
2017-08-22T12:17:23.837Z,25.51
2017-08-22T12:18:23.833Z,25.52
2017-08-22T12:19:23.834Z,25.52
2017-08-22T12:20:24.144Z,25.52
2017-08-22T12:21:23.829Z,25.59
2017-08-22T12:22:24.132Z,25.74
2017-08-22T12:23:23.826Z,25.74
2017-08-22T12:24:24.121Z,25.85
2017-08-22T12:25:23.821Z,25.96
2017-08-22T12:26:24.125Z,25.95
2017-08-22T12:27:24.120Z,25.89
2017-08-22T12:28:24.117Z,25.95
2017-08-22T12:29:23.809Z,25.86
2017-08-22T12:30:24.116Z,25.98
2017-08-22T12:31:24.115Z,26.03
2017-08-22T12:32:24.110Z,26.03
2017-08-22T12:33:24.106Z,26.03
2017-08-22T12:34:24.110Z,25.98
2017-08-22T12:35:24.109Z,25.86
2017-08-22T12:36:23.796Z,25.91
2017-08-22T12:37:23.794Z,25.83
2017-08-22T12:38:24.099Z,25.74
2017-08-22T12:39:24.126Z,25.67
2017-08-22T12:40:24.108Z,25.56
2017-08-22T12:41:24.102Z,25.37
2017-08-22T12:42:23.783Z,25.36
2017-08-22T12:43:24.087Z,25.21
2017-08-22T12:44:23.785Z,25.19
2017-08-22T12:45:24.086Z,25.11
2017-08-22T12:46:24.086Z,25.11
2017-08-22T12:47:24.081Z,24.96
2017-08-22T12:48:24.085Z,24.92
2017-08-22T12:49:24.077Z,24.75
2017-08-22T12:50:23.775Z,24.63
2017-08-22T12:51:24.080Z,24.58
2017-08-22T12:52:24.073Z,24.56
2017-08-22T12:53:24.070Z,24.58
2017-08-22T12:54:23.457Z,24.63
2017-08-22T12:55:24.073Z,24.5